createdAt,value
2023-05-19T00:02:05.977Z,96800.06
2023-05-19T00:04:33.711Z,96837.56
2023-05-19T00:07:01.370Z,96841.50
2023-05-19T00:09:28.467Z,96834.00
2023-05-19T00:11:56.780Z,96836.78
2023-05-19T00:14:23.768Z,96805.72
2023-05-19T00:16:50.738Z,96846.75
2023-05-19T00:19:17.758Z,96829.63
2023-05-19T00:21:44.476Z,96837.56
2023-05-19T00:24:11.265Z,96832.03
2023-05-19T00:26:37.997Z,96779.50
2023-05-19T00:29:04.803Z,96730.19
2023-05-19T00:31:31.868Z,96780.31
2023-05-19T00:33:58.571Z,96824.09
2023-05-19T00:36:26.072Z,96844.75
2023-05-19T00:38:52.787Z,96805.75
2023-05-19T00:41:19.617Z,96853.13
2023-05-19T00:43:46.276Z,96855.88
2023-05-19T00:46:13.032Z,96851.53
2023-05-19T00:48:39.717Z,96852.75
2023-05-19T00:51:06.721Z,96859.91
2023-05-19T00:53:34.300Z,96843.94
2023-05-19T00:56:02.193Z,96847.44
2023-05-19T00:58:30.503Z,96860.16
2023-05-19T01:01:04.198Z,96862.16
2023-05-19T01:03:35.040Z,96814.03
2023-05-19T01:06:05.106Z,96864.44
2023-05-19T01:08:37.293Z,96866.78
2023-05-19T01:11:05.546Z,96855.66
2023-05-19T01:13:33.702Z,96846.09
2023-05-19T01:16:06.988Z,96859.59
2023-05-19T01:18:56.198Z,96865.06
2023-05-19T01:21:44.352Z,96796.69
2023-05-19T01:24:23.319Z,96853.72
2023-05-19T01:27:15.133Z,96862.47
2023-05-19T01:29:47.970Z,96834.56
2023-05-19T01:32:19.618Z,96838.56
2023-05-19T01:34:49.215Z,96841.69
2023-05-19T01:37:17.492Z,96848.91
2023-05-19T01:39:45.128Z,96824.91
2023-05-19T01:42:14.280Z,96812.75
2023-05-19T01:44:41.615Z,96767.94
2023-05-19T01:47:09.646Z,96821.13
2023-05-19T01:49:36.452Z,96839.41
2023-05-19T01:52:03.120Z,96833.84
2023-05-19T01:54:29.733Z,96831.53
2023-05-19T01:57:09.687Z,96769.09
2023-05-19T01:59:49.299Z,96845.94
2023-05-19T02:02:57.440Z,96840.28
2023-05-19T02:05:34.447Z,96830.41
2023-05-19T02:08:05.732Z,96839.47
2023-05-19T02:10:35.847Z,96827.63
2023-05-19T02:13:06.466Z,96858.66
2023-05-19T02:15:42.045Z,96853.81
2023-05-19T02:18:12.635Z,96841.09
2023-05-19T02:20:40.200Z,96861.03
2023-05-19T02:23:07.214Z,96859.00
2023-05-19T02:25:34.055Z,96866.72
2023-05-19T02:28:00.861Z,96862.88
2023-05-19T02:30:27.875Z,96863.31
2023-05-19T02:32:54.565Z,96822.44
2023-05-19T02:35:21.587Z,96864.13
2023-05-19T02:37:48.323Z,96854.59
2023-05-19T02:40:15.380Z,96852.88
2023-05-19T02:42:41.967Z,96859.97
2023-05-19T02:45:08.823Z,96871.41
2023-05-19T02:47:36.925Z,96842.72
2023-05-19T02:50:04.971Z,96865.06
2023-05-19T02:52:31.791Z,96832.63
2023-05-19T02:54:58.485Z,96763.16
2023-05-19T02:57:26.758Z,96851.91
2023-05-19T02:59:53.461Z,96866.25
2023-05-19T03:02:20.098Z,96882.22
2023-05-19T03:04:46.807Z,96892.56
2023-05-19T03:07:14.295Z,96876.63
2023-05-19T03:09:40.996Z,96873.47
2023-05-19T03:12:08.068Z,96894.56
2023-05-19T03:14:38.572Z,96910.06
2023-05-19T03:17:08.247Z,96849.94
2023-05-19T03:19:35.191Z,96904.47
2023-05-19T03:22:01.863Z,96914.03
2023-05-19T03:24:28.445Z,96912.41
2023-05-19T03:26:55.115Z,96909.25
2023-05-19T03:29:21.920Z,96908.88
2023-05-19T03:31:48.563Z,96919.63
2023-05-19T03:34:15.231Z,96907.28
2023-05-19T03:36:41.924Z,96879.81
2023-05-19T03:39:09.447Z,96917.22
2023-05-19T03:41:36.052Z,96882.22
2023-05-19T03:44:02.775Z,96905.28
2023-05-19T03:46:29.465Z,96935.94
2023-05-19T03:48:56.205Z,96932.34
2023-05-19T03:51:22.806Z,96793.81
2023-05-19T03:53:49.463Z,96935.44
2023-05-19T03:56:18.215Z,96924.13
2023-05-19T03:58:45.149Z,96944.84
2023-05-19T04:01:11.928Z,96940.81
2023-05-19T04:03:38.802Z,96897.88
2023-05-19T04:06:05.960Z,96943.16
2023-05-19T04:08:32.619Z,96957.78
2023-05-19T04:10:59.315Z,96965.75
2023-05-19T04:13:26.175Z,96899.31
2023-05-19T04:15:53.030Z,96964.56
2023-05-19T04:18:19.647Z,96938.56
2023-05-19T04:20:46.418Z,96943.81
2023-05-19T04:23:13.111Z,96961.75
2023-05-19T04:25:40.929Z,96958.84
2023-05-19T04:28:07.800Z,96964.38
2023-05-19T04:30:34.790Z,96963.09
2023-05-19T04:33:03.558Z,96966.97
2023-05-19T04:35:30.253Z,96923.53
2023-05-19T04:37:56.947Z,96910.13
2023-05-19T04:40:24.911Z,96972.84
2023-05-19T04:42:52.444Z,96650.25
2023-05-19T04:45:19.221Z,96981.75
2023-05-19T04:47:48.257Z,96976.22
2023-05-19T04:50:16.418Z,96989.38
2023-05-19T04:52:45.565Z,96922.09
2023-05-19T04:55:13.234Z,97005.47
2023-05-19T04:57:40.235Z,96992.19
2023-05-19T05:00:09.172Z,96993.00
2023-05-19T05:02:36.261Z,96998.53
2023-05-19T05:05:03.017Z,96990.53
2023-05-19T05:07:31.655Z,97004.13
2023-05-19T05:09:59.779Z,97004.50
2023-05-19T05:12:26.739Z,97009.84
2023-05-19T05:14:53.664Z,96976.81
2023-05-19T05:17:20.639Z,97007.53
2023-05-19T05:19:48.526Z,97019.94
2023-05-19T05:22:15.633Z,96995.03
2023-05-19T05:24:42.489Z,97009.97
2023-05-19T05:27:10.375Z,97018.94
2023-05-19T05:29:37.338Z,97023.91
2023-05-19T05:32:04.127Z,97026.44
2023-05-19T05:34:31.082Z,97020.16
2023-05-19T05:36:57.676Z,97024.34
2023-05-19T05:39:24.336Z,97019.81
2023-05-19T05:41:51.010Z,97037.69
2023-05-19T05:44:17.684Z,97038.50
2023-05-19T05:46:44.794Z,97039.75
2023-05-19T05:49:13.467Z,97035.75
2023-05-19T05:51:42.936Z,97040.03
2023-05-19T05:54:12.568Z,97048.28
2023-05-19T05:56:41.251Z,96711.97
2023-05-19T05:59:07.934Z,97053.41
2023-05-19T06:01:35.939Z,96970.41
2023-05-19T06:04:02.751Z,97057.81
2023-05-19T06:06:29.419Z,97060.88
2023-05-19T06:08:56.167Z,97064.44
2023-05-19T06:11:23.149Z,97072.56
2023-05-19T06:13:49.751Z,96952.75
2023-05-19T06:16:16.577Z,97058.66
2023-05-19T06:18:43.327Z,97076.03
2023-05-19T06:21:13.561Z,97110.59
2023-05-19T06:23:41.083Z,97072.19
2023-05-19T06:26:07.752Z,97080.31
2023-05-19T06:28:34.485Z,97080.22
2023-05-19T06:31:01.328Z,97085.75
2023-05-19T06:33:29.360Z,97084.88
2023-05-19T06:35:56.094Z,97051.78
2023-05-19T06:38:22.746Z,97100.50
2023-05-19T06:40:49.519Z,97062.38
2023-05-19T06:43:16.189Z,97100.91
2023-05-19T06:45:42.809Z,97094.00
2023-05-19T06:48:09.572Z,97078.91
2023-05-19T06:50:36.271Z,97102.94
2023-05-19T06:53:02.921Z,97107.84
2023-05-19T06:55:29.587Z,97104.91
2023-05-19T06:57:56.546Z,97106.97
2023-05-19T07:00:24.095Z,97113.69
2023-05-19T07:02:51.134Z,97112.22
2023-05-19T07:05:18.134Z,97032.91
2023-05-19T07:07:44.878Z,97052.88
2023-05-19T07:10:11.687Z,97108.09
2023-05-19T07:12:38.285Z,97110.59
2023-05-19T07:15:05.349Z,97112.69
2023-05-19T07:17:32.007Z,97057.00
2023-05-19T07:19:58.978Z,97118.72
2023-05-19T07:22:25.675Z,97115.69
2023-05-19T07:24:52.723Z,97114.69
2023-05-19T07:27:19.373Z,97122.50
2023-05-19T07:29:45.994Z,97115.22
2023-05-19T07:32:12.804Z,97095.75
2023-05-19T07:34:40.681Z,97107.47
2023-05-19T07:37:07.482Z,97109.66
2023-05-19T07:39:35.299Z,97110.06
2023-05-19T07:42:02.172Z,97068.38
2023-05-19T07:44:31.302Z,97106.69
2023-05-19T07:46:58.015Z,97104.34
2023-05-19T07:49:24.684Z,97108.28
2023-05-19T07:51:51.323Z,97105.41
2023-05-19T07:54:18.442Z,97101.47
2023-05-19T07:56:45.070Z,97072.81
2023-05-19T07:59:11.900Z,97105.44
2023-05-19T08:01:38.618Z,97098.41
2023-05-19T08:04:05.620Z,97095.16
2023-05-19T08:06:32.322Z,97101.75
2023-05-19T08:08:58.983Z,97100.91
2023-05-19T08:11:25.922Z,97098.19
2023-05-19T08:13:52.620Z,97088.50
2023-05-19T08:16:19.376Z,97103.47
2023-05-19T08:18:46.223Z,97101.38
2023-05-19T08:21:12.971Z,97119.84
2023-05-19T08:23:39.618Z,97111.53
2023-05-19T08:26:06.308Z,97118.28
2023-05-19T08:28:32.982Z,97118.81
2023-05-19T08:30:59.785Z,97102.75
2023-05-19T08:33:26.424Z,97131.66
2023-05-19T08:35:53.180Z,97124.13
2023-05-19T08:38:19.803Z,97065.78
2023-05-19T08:40:48.409Z,97124.09
2023-05-19T08:43:15.203Z,97125.13
2023-05-19T08:45:48.361Z,97123.81
2023-05-19T08:48:17.315Z,97130.81
2023-05-19T08:50:51.870Z,97123.78
2023-05-19T08:53:33.766Z,97099.00
2023-05-19T08:56:20.259Z,97135.91
2023-05-19T08:58:49.973Z,97116.28
2023-05-19T09:01:18.201Z,97091.25
2023-05-19T09:03:46.181Z,97144.53
2023-05-19T09:06:13.378Z,97111.97
2023-05-19T09:08:41.694Z,97108.44
2023-05-19T09:11:10.136Z,97144.34
2023-05-19T09:13:37.003Z,97081.06
2023-05-19T09:16:04.011Z,97116.53
2023-05-19T09:18:31.213Z,97145.28
2023-05-19T09:21:03.009Z,97090.59
2023-05-19T09:23:33.579Z,97145.59
2023-05-19T09:26:07.590Z,97159.41
2023-05-19T09:28:36.493Z,97144.09
2023-05-19T09:31:11.224Z,97117.41
2023-05-19T09:33:45.593Z,97141.59
2023-05-19T09:36:13.749Z,97099.41
2023-05-19T09:38:40.694Z,97112.75
2023-05-19T09:41:09.297Z,97147.16
2023-05-19T09:43:36.607Z,97035.88
2023-05-19T09:46:07.958Z,97147.75
2023-05-19T09:48:36.455Z,97149.69
2023-05-19T09:51:05.389Z,97130.22
2023-05-19T09:53:32.663Z,97131.59
2023-05-19T09:56:02.093Z,97136.81
2023-05-19T09:58:35.431Z,97138.84
2023-05-19T10:01:03.814Z,97136.16
2023-05-19T10:03:33.095Z,97133.97
2023-05-19T10:06:01.590Z,97129.09
2023-05-19T10:08:30.420Z,97140.47
2023-05-19T10:10:58.398Z,97132.66
2023-05-19T10:13:25.970Z,97125.06
2023-05-19T10:15:58.769Z,97120.09
2023-05-19T10:18:27.845Z,97107.53
2023-05-19T10:20:54.962Z,97106.69
2023-05-19T10:23:22.554Z,97114.66
2023-05-19T10:25:52.502Z,97115.88
2023-05-19T10:28:23.660Z,97127.53
2023-05-19T10:30:56.488Z,97125.03
2023-05-19T10:33:44.996Z,97115.59
2023-05-19T10:36:42.678Z,97125.97
2023-05-19T10:39:17.206Z,97130.50
2023-05-19T10:41:57.250Z,97123.41
2023-05-19T10:44:39.171Z,97100.09
2023-05-19T10:47:12.042Z,97110.16
2023-05-19T10:49:40.063Z,97111.41
2023-05-19T10:52:27.062Z,97105.03
2023-05-19T10:54:55.012Z,97096.16
2023-05-19T10:57:28.493Z,97095.50
2023-05-19T10:59:56.006Z,97094.84
2023-05-19T11:02:43.072Z,97100.09
2023-05-19T11:05:14.447Z,97103.00
2023-05-19T11:07:54.604Z,97100.75
2023-05-19T11:10:24.789Z,97096.00
2023-05-19T11:12:52.460Z,97096.06
2023-05-19T11:15:26.349Z,97057.88
2023-05-19T11:17:53.993Z,97084.28
2023-05-19T11:20:26.044Z,97104.28
2023-05-19T11:23:15.862Z,97078.19
2023-05-19T11:25:51.499Z,97087.88
2023-05-19T11:28:20.259Z,97078.97
2023-05-19T11:30:52.481Z,97079.50
2023-05-19T11:33:27.179Z,97083.78
2023-05-19T11:35:58.168Z,97080.28
2023-05-19T11:38:25.437Z,97075.38
2023-05-19T11:40:55.576Z,97037.69
2023-05-19T11:43:26.289Z,97038.59
2023-05-19T11:45:55.391Z,97064.19
2023-05-19T11:48:22.598Z,97064.09
2023-05-19T11:50:50.128Z,97062.81
2023-05-19T11:53:19.867Z,97057.50
2023-05-19T11:55:47.963Z,97063.03
2023-05-19T11:58:15.015Z,97060.72
2023-05-19T12:00:46.000Z,97062.19
2023-05-19T12:03:13.443Z,97072.13
2023-05-19T12:05:46.061Z,97055.59
2023-05-19T12:08:13.757Z,97055.31
2023-05-19T12:10:41.094Z,97052.22
2023-05-19T12:13:09.593Z,97047.44
2023-05-19T12:15:36.934Z,96958.81
2023-05-19T12:18:03.956Z,96994.78
2023-05-19T12:20:36.180Z,97036.56
2023-05-19T12:23:04.182Z,97035.53
2023-05-19T12:25:31.920Z,97007.31
2023-05-19T12:28:00.726Z,96986.16
2023-05-19T12:30:29.874Z,97028.66
2023-05-19T12:32:57.880Z,97025.84
2023-05-19T12:35:33.132Z,97019.34
2023-05-19T12:38:04.870Z,97024.06
2023-05-19T12:40:33.289Z,96998.97
2023-05-19T12:43:00.164Z,97019.34
2023-05-19T12:45:30.834Z,97018.38
2023-05-19T12:47:57.828Z,96947.22
2023-05-19T12:50:31.403Z,96917.16
2023-05-19T12:52:59.893Z,97013.56
2023-05-19T12:55:26.752Z,97016.38
2023-05-19T12:57:59.667Z,97027.22
2023-05-19T13:00:32.888Z,97025.31
2023-05-19T13:03:07.435Z,97027.22
2023-05-19T13:05:45.833Z,97016.88
2023-05-19T13:08:15.359Z,97015.00
2023-05-19T13:10:44.040Z,97012.31
2023-05-19T13:13:10.909Z,97012.34
2023-05-19T13:15:40.444Z,97019.44
2023-05-19T13:18:09.142Z,97008.38
2023-05-19T13:20:40.734Z,97003.63
2023-05-19T13:23:07.715Z,97001.25
2023-05-19T13:25:34.640Z,97014.56
2023-05-19T13:28:05.489Z,96971.47
2023-05-19T13:30:38.584Z,96924.13
2023-05-19T13:33:05.960Z,96980.97
2023-05-19T13:35:39.076Z,96969.56
2023-05-19T13:38:07.042Z,97011.06
2023-05-19T13:40:35.097Z,97013.81
2023-05-19T13:43:02.892Z,97022.09
2023-05-19T13:45:29.976Z,97041.06
2023-05-19T13:47:57.073Z,97058.84
2023-05-19T13:50:23.889Z,97020.56
2023-05-19T13:52:50.554Z,97070.19
2023-05-19T13:55:17.407Z,97095.63
2023-05-19T13:57:44.910Z,97108.97
2023-05-19T14:00:11.874Z,97090.94
2023-05-19T14:02:39.022Z,97114.72
2023-05-19T14:05:07.074Z,97126.19
2023-05-19T14:07:35.090Z,97120.09
2023-05-19T14:10:06.769Z,97149.25
2023-05-19T14:12:45.083Z,97112.31
2023-05-19T14:15:19.535Z,97179.69
2023-05-19T14:17:46.329Z,97187.97
2023-05-19T14:20:13.165Z,97100.78
2023-05-19T14:22:39.805Z,97188.91
2023-05-19T14:25:06.972Z,97192.13
2023-05-19T14:27:33.602Z,97188.97
2023-05-19T14:30:00.323Z,97194.34
2023-05-19T14:32:30.032Z,97199.75
2023-05-19T14:34:57.116Z,97215.25
2023-05-19T14:37:24.208Z,97208.56
2023-05-19T14:39:50.833Z,97221.75
2023-05-19T14:42:17.447Z,97218.81
2023-05-19T14:44:44.152Z,97233.28
2023-05-19T14:47:12.463Z,97230.13
2023-05-19T14:49:39.247Z,97229.31
2023-05-19T14:52:06.249Z,97224.53
2023-05-19T14:54:32.907Z,97237.63
2023-05-19T14:56:59.647Z,97194.19
2023-05-19T14:59:26.283Z,97244.38
2023-05-19T15:01:52.919Z,97217.28
2023-05-19T15:04:19.733Z,96908.31
2023-05-19T15:06:52.240Z,97263.44
2023-05-19T15:09:25.107Z,97273.09
2023-05-19T15:11:51.707Z,97276.31
2023-05-19T15:14:18.288Z,97270.31
2023-05-19T15:16:44.928Z,96956.03
2023-05-19T15:19:11.570Z,97069.19
2023-05-19T15:21:38.250Z,97263.16
2023-05-19T15:24:05.136Z,97272.72
2023-05-19T15:26:31.774Z,97270.09
2023-05-19T15:28:58.386Z,97276.59
2023-05-19T15:31:25.127Z,97220.81
2023-05-19T15:33:51.758Z,97273.47
2023-05-19T15:36:18.740Z,97257.94
2023-05-19T15:38:45.475Z,97273.50
2023-05-19T15:41:12.136Z,97204.13
2023-05-19T15:43:39.190Z,97268.72
2023-05-19T15:46:06.020Z,97273.56
2023-05-19T15:48:33.440Z,97265.53
2023-05-19T15:51:00.279Z,97251.13
2023-05-19T15:53:27.022Z,97188.09
2023-05-19T15:55:53.712Z,97225.19
2023-05-19T15:58:20.462Z,97186.91
2023-05-19T16:00:47.177Z,97234.38
2023-05-19T16:03:13.898Z,97208.03
2023-05-19T16:05:40.751Z,97141.44
2023-05-19T16:08:08.657Z,97226.75
2023-05-19T16:10:35.777Z,97226.72
2023-05-19T16:13:02.555Z,97219.53
2023-05-19T16:15:29.197Z,97162.13
2023-05-19T16:17:55.954Z,97223.84
2023-05-19T16:20:26.794Z,97221.41
2023-05-19T16:22:54.244Z,97216.19
2023-05-19T16:25:20.949Z,97215.38
2023-05-19T16:27:47.763Z,97093.03
2023-05-19T16:30:14.725Z,97213.66
2023-05-19T16:32:41.399Z,97217.13
2023-05-19T16:35:08.890Z,97116.72
2023-05-19T16:37:36.028Z,97216.34
2023-05-19T16:40:02.866Z,97192.16
2023-05-19T16:42:29.484Z,97189.63
2023-05-19T16:44:56.139Z,97191.97
2023-05-19T16:47:22.740Z,97157.31
2023-05-19T16:49:49.406Z,97213.03
2023-05-19T16:52:16.010Z,97194.00
2023-05-19T16:54:42.688Z,97204.69
2023-05-19T16:57:09.958Z,97197.59
2023-05-19T16:59:36.548Z,97150.97
2023-05-19T17:02:03.495Z,97191.19
2023-05-19T17:04:30.947Z,97196.81
2023-05-19T17:06:57.803Z,97142.72
2023-05-19T17:09:26.394Z,97186.13
2023-05-19T17:11:53.598Z,97204.81
2023-05-19T17:14:23.672Z,97205.38
2023-05-19T17:16:52.436Z,97136.63
2023-05-19T17:19:19.173Z,97208.75
2023-05-19T17:21:46.420Z,97155.19
2023-05-19T17:24:13.170Z,97180.28
2023-05-19T17:26:39.842Z,97212.53
2023-05-19T17:29:06.502Z,97211.84
2023-05-19T17:31:36.479Z,97209.38
2023-05-19T17:34:06.508Z,97212.91
2023-05-19T17:36:33.117Z,97221.66
2023-05-19T17:38:59.726Z,97216.06
2023-05-19T17:41:26.426Z,97220.81
2023-05-19T17:43:53.042Z,97148.25
2023-05-19T17:46:19.757Z,97160.59
2023-05-19T17:48:46.429Z,97216.81
2023-05-19T17:51:13.073Z,97225.31
2023-05-19T17:53:39.933Z,97231.31
2023-05-19T17:56:09.614Z,97228.88
2023-05-19T17:58:36.490Z,97224.84
2023-05-19T18:01:04.190Z,97229.63
2023-05-19T18:03:31.421Z,97239.22
2023-05-19T18:05:58.804Z,97241.22
2023-05-19T18:08:26.029Z,97227.25
2023-05-19T18:10:55.308Z,97106.84
2023-05-19T18:13:23.680Z,97248.00
2023-05-19T18:15:50.602Z,97234.41
2023-05-19T18:18:17.284Z,97238.03
2023-05-19T18:20:45.746Z,97241.66
2023-05-19T18:23:12.412Z,97238.50
2023-05-19T18:25:39.343Z,97243.28
2023-05-19T18:28:07.655Z,97236.09
2023-05-19T18:30:34.826Z,97245.69
2023-05-19T18:33:03.916Z,97184.69
2023-05-19T18:35:30.830Z,97221.75
2023-05-19T18:37:57.463Z,97232.94
2023-05-19T18:40:24.561Z,97230.53
2023-05-19T18:42:51.167Z,97223.34
2023-05-19T18:45:17.965Z,97225.69
2023-05-19T18:47:44.692Z,97256.88
2023-05-19T18:50:11.327Z,97259.97
2023-05-19T18:52:37.955Z,97252.00
2023-05-19T18:55:05.442Z,97263.16
2023-05-19T18:57:32.234Z,97258.38
2023-05-19T18:59:58.862Z,97260.81
2023-05-19T19:02:26.221Z,97262.00
2023-05-19T19:04:52.930Z,97267.22
2023-05-19T19:07:19.595Z,97266.44
2023-05-19T19:09:46.253Z,97262.34
2023-05-19T19:12:12.909Z,97288.72
2023-05-19T19:14:39.617Z,97253.91
2023-05-19T19:17:06.389Z,97285.47
2023-05-19T19:19:33.276Z,97278.28
2023-05-19T19:21:59.989Z,97268.25
2023-05-19T19:24:28.496Z,97271.81
2023-05-19T19:26:55.236Z,97279.69
2023-05-19T19:29:21.974Z,97291.66
2023-05-19T19:31:48.776Z,97299.63
2023-05-19T19:34:15.499Z,97285.53
2023-05-19T19:36:42.117Z,97325.72
2023-05-19T19:39:12.115Z,97289.53
2023-05-19T19:41:38.813Z,97295.06
2023-05-19T19:44:08.328Z,97296.22
2023-05-19T19:46:35.583Z,97202.59
2023-05-19T19:49:02.463Z,97297.75
2023-05-19T19:51:29.317Z,97234.59
2023-05-19T19:53:56.004Z,97300.25
2023-05-19T19:56:24.682Z,97301.13
2023-05-19T19:58:51.727Z,97309.81
2023-05-19T20:01:20.501Z,97307.06
2023-05-19T20:03:47.817Z,97302.22
2023-05-19T20:06:14.639Z,97299.41
2023-05-19T20:08:41.544Z,97301.66
2023-05-19T20:11:09.086Z,97254.94
2023-05-19T20:13:35.744Z,97294.88
2023-05-19T20:16:02.455Z,97298.41
2023-05-19T20:18:29.960Z,97302.78
2023-05-19T20:20:56.952Z,97290.63
2023-05-19T20:23:23.587Z,97287.75
2023-05-19T20:26:10.226Z,97293.78
2023-05-19T20:28:37.513Z,97282.25
2023-05-19T20:31:05.189Z,97231.78
2023-05-19T20:33:32.065Z,97284.63
2023-05-19T20:35:58.772Z,97202.00
2023-05-19T20:38:25.526Z,97277.38
2023-05-19T20:40:52.694Z,97218.50
2023-05-19T20:43:19.404Z,97293.09
2023-05-19T20:45:46.565Z,97291.50
2023-05-19T20:48:13.373Z,97284.44
2023-05-19T20:50:40.203Z,97278.84
2023-05-19T20:53:07.475Z,97274.53
2023-05-19T20:55:36.258Z,97249.31
2023-05-19T20:58:03.110Z,97273.50
2023-05-19T21:00:30.394Z,97277.03
2023-05-19T21:02:57.496Z,97273.38
2023-05-19T21:05:24.496Z,97284.91
2023-05-19T21:07:51.124Z,97282.88
2023-05-19T21:10:18.058Z,97276.41
2023-05-19T21:12:44.801Z,97233.03
2023-05-19T21:15:11.761Z,97276.28
2023-05-19T21:17:38.463Z,97272.25
2023-05-19T21:20:05.797Z,97284.91
2023-05-19T21:22:32.503Z,97285.75
2023-05-19T21:24:59.165Z,97283.38
2023-05-19T21:27:25.957Z,97278.94
2023-05-19T21:29:54.211Z,97283.31
2023-05-19T21:32:22.460Z,97243.16
2023-05-19T21:34:49.066Z,97283.25
2023-05-19T21:37:17.358Z,97262.28
2023-05-19T21:39:44.573Z,97263.53
2023-05-19T21:42:11.230Z,97295.19
2023-05-19T21:44:37.941Z,97280.44
2023-05-19T21:47:04.638Z,97286.84
2023-05-19T21:49:31.436Z,97288.34
2023-05-19T21:51:58.408Z,97285.06
2023-05-19T21:54:25.065Z,97299.53
2023-05-19T21:56:51.800Z,97256.63
2023-05-19T21:59:18.628Z,97281.56
2023-05-19T22:01:45.398Z,97268.13
2023-05-19T22:04:13.546Z,97273.22
2023-05-19T22:06:40.152Z,97265.03
2023-05-19T22:09:06.856Z,97211.00
2023-05-19T22:11:33.718Z,97263.47
2023-05-19T22:14:00.418Z,97260.56
2023-05-19T22:16:27.172Z,97272.78
2023-05-19T22:18:53.929Z,97233.22
2023-05-19T22:21:20.697Z,97256.19
2023-05-19T22:23:47.394Z,97220.72
2023-05-19T22:26:14.117Z,97263.94
2023-05-19T22:28:40.814Z,96915.16
2023-05-19T22:31:07.412Z,97249.44
2023-05-19T22:33:34.132Z,97269.22
2023-05-19T22:36:00.809Z,97262.19
2023-05-19T22:38:27.440Z,97257.44
2023-05-19T22:40:54.159Z,97253.56
2023-05-19T22:43:20.823Z,97257.97
2023-05-19T22:45:47.476Z,97152.75
2023-05-19T22:48:14.267Z,97252.03
2023-05-19T22:50:41.047Z,97252.84
2023-05-19T22:53:07.656Z,97260.88
2023-05-19T22:55:34.722Z,97252.72
2023-05-19T22:58:01.650Z,97189.13
2023-05-19T23:00:28.272Z,97276.34
2023-05-19T23:02:55.001Z,97203.22
2023-05-19T23:05:21.665Z,97238.59
2023-05-19T23:07:48.293Z,97244.88
2023-05-19T23:10:14.973Z,97248.72
2023-05-19T23:12:41.642Z,97191.38
2023-05-19T23:15:09.629Z,97251.72
2023-05-19T23:17:36.343Z,97249.78
2023-05-19T23:20:03.781Z,97233.78
2023-05-19T23:22:30.690Z,97232.44
2023-05-19T23:24:57.290Z,97226.38
2023-05-19T23:27:23.998Z,97207.41
2023-05-19T23:29:51.142Z,97217.94
2023-05-19T23:32:17.793Z,97207.41
2023-05-19T23:34:44.422Z,97219.97
2023-05-19T23:37:11.743Z,97160.63
2023-05-19T23:39:38.467Z,97123.03
2023-05-19T23:42:05.798Z,97203.06
2023-05-19T23:44:32.626Z,97207.91
2023-05-19T23:46:59.433Z,97207.09
2023-05-19T23:49:26.265Z,97216.69
2023-05-19T23:51:52.943Z,97215.84
2023-05-19T23:54:19.567Z,97209.53
2023-05-19T23:56:46.181Z,97192.34
2023-05-19T23:59:12.909Z,97141.25
